Time;durP1;ratioP1;P1;durP2;ratioP2;P2;SDS_P1;SDS_P2;PMS_P1;PMS_P2;Temp;Humidity;BMP_temperature;BMP_pressure;BME280_temperature;BME280_humidity;BME280_pressure;Samples;Min_cycle;Max_cycle;Signal;HPM_P1;HPM_P2
2021/09/25 00:01:48;;;;;;;;;26.75;24.25;;;;;17.80;66.76;101412.91;4923738;28;45329;-57
2021/09/25 00:04:14;;;;;;;;;32.25;25.25;;;;;17.79;66.53;101414.72;4923876;28;45325;-57
2021/09/25 00:06:40;;;;;;;;;42.25;34.25;;;;;17.78;66.66;101418.34;4923771;28;45389;-57
2021/09/25 00:09:06;;;;;;;;;31.50;27.50;;;;;17.73;66.51;101415.19;4923800;28;45268;-56
2021/09/25 00:11:32;;;;;;;;;30.25;26.75;;;;;17.71;66.62;101410.97;4911563;28;45226;-56
2021/09/25 00:13:58;;;;;;;;;29.25;27.50;;;;;17.69;66.82;101416.34;4923759;28;46137;-56
2021/09/25 00:16:26;;;;;;;;;28.25;27.25;;;;;17.67;66.55;101410.31;4923868;28;45225;-57
2021/09/25 00:18:56;;;;;;;;;26.50;24.75;;;;;17.66;66.75;101413.09;4923709;28;45570;-56
2021/09/25 00:21:22;;;;;;;;;27.75;24.50;;;;;17.63;66.75;101411.53;4923945;28;45333;-57
2021/09/25 00:23:48;;;;;;;;;31.50;27.25;;;;;17.63;66.97;101410.69;4923405;28;46404;-57
2021/09/25 00:26:14;;;;;;;;;24.25;22.50;;;;;17.62;66.83;101404.50;4923467;28;45240;-57
2021/09/25 00:28:39;;;;;;;;;24.50;22.00;;;;;17.61;67.03;101405.47;4923752;28;45299;-57
2021/09/25 00:31:05;;;;;;;;;25.50;20.00;;;;;17.57;66.91;101404.00;4923618;28;45660;-57
2021/09/25 00:33:31;;;;;;;;;22.25;21.25;;;;;17.55;66.99;101405.97;4923424;28;46006;-57
2021/09/25 00:35:56;;;;;;;;;25.00;21.50;;;;;17.53;67.35;101405.22;4923504;28;45359;-57
2021/09/25 00:38:22;;;;;;;;;20.00;20.00;;;;;17.51;67.13;101407.16;4923228;28;45296;-56
2021/09/25 00:40:47;;;;;;;;;21.25;19.00;;;;;17.49;67.27;101404.63;4923420;28;45440;-57
2021/09/25 00:43:13;;;;;;;;;24.50;20.00;;;;;17.48;67.38;101407.41;4923231;28;45293;-56
2021/09/25 00:45:38;;;;;;;;;22.25;18.00;;;;;17.44;67.49;101409.44;4923564;28;45319;-56
2021/09/25 00:48:04;;;;;;;;;25.00;22.00;;;;;17.42;67.43;101410.53;4923331;28;45269;-57
2021/09/25 00:50:30;;;;;;;;;20.25;19.00;;;;;17.37;67.76;101405.53;4923691;28;45495;-57
2021/09/25 00:52:56;;;;;;;;;20.50;19.50;;;;;17.37;67.93;101410.03;4923096;28;45232;-56
2021/09/25 00:55:23;;;;;;;;;23.50;20.75;;;;;17.36;67.48;101414.50;4923229;28;45244;-57
2021/09/25 00:57:56;;;;;;;;;27.25;23.00;;;;;17.29;67.83;101414.13;4923347;28;45226;-56
2021/09/25 01:00:22;;;;;;;;;26.25;24.00;;;;;17.27;67.82;101412.56;4923177;28;45282;-61
2021/09/25 01:02:48;;;;;;;;;23.50;23.25;;;;;17.24;67.69;101407.47;4922899;28;46097;-58
2021/09/25 01:05:16;;;;;;;;;29.00;25.00;;;;;17.23;67.82;101413.78;4923188;28;45174;-57
2021/09/25 01:07:42;;;;;;;;;26.25;24.50;;;;;17.19;68.19;101409.63;4923167;28;45402;-56
2021/09/25 01:10:08;;;;;;;;;22.75;20.00;;;;;17.16;68.12;101402.75;4925075;28;45478;-56
2021/09/25 01:12:33;;;;;;;;;27.25;21.50;;;;;17.15;67.99;101406.38;4926398;28;45316;-58
2021/09/25 01:14:59;;;;;;;;;27.75;22.00;;;;;17.14;68.41;101411.78;4926522;28;45419;-58
2021/09/25 01:17:24;;;;;;;;;27.00;25.50;;;;;17.11;68.34;101402.22;4926463;28;45299;-56
2021/09/25 01:19:50;;;;;;;;;24.75;22.50;;;;;17.09;68.36;101400.66;4926638;28;45341;-58
2021/09/25 01:22:16;;;;;;;;;29.75;26.25;;;;;17.06;68.39;101403.53;4926247;28;45363;-56
2021/09/25 01:24:41;;;;;;;;;25.50;23.75;;;;;17.05;68.54;101401.84;4926141;28;45237;-57
2021/09/25 01:27:07;;;;;;;;;25.50;23.25;;;;;17.01;68.59;101406.56;4926393;28;45348;-57
2021/09/25 01:29:34;;;;;;;;;26.50;22.00;;;;;17.00;68.84;101397.72;4926329;28;45416;-57
2021/09/25 01:32:00;;;;;;;;;28.50;23.75;;;;;17.01;68.66;101395.91;4926289;28;45359;-57
2021/09/25 01:34:25;;;;;;;;;26.50;22.25;;;;;17.01;68.68;101396.75;4926274;28;45181;-57
2021/09/25 01:36:51;;;;;;;;;28.00;23.50;;;;;16.99;68.67;101388.06;4926469;28;45622;-57
2021/09/25 01:39:17;;;;;;;;;19.00;18.50;;;;;16.95;68.67;101389.22;4925997;28;45390;-57
2021/09/25 01:41:42;;;;;;;;;23.75;20.25;;;;;16.95;68.82;101399.03;4925995;28;45380;-56
2021/09/25 01:44:08;;;;;;;;;23.50;21.00;;;;;16.93;68.96;101388.50;4926170;28;45276;-58
2021/09/25 01:46:34;;;;;;;;;23.75;18.50;;;;;16.92;68.79;101393.94;4926317;28;45288;-57
2021/09/25 01:48:59;;;;;;;;;24.50;24.50;;;;;16.91;68.82;101393.09;4926133;28;45627;-56
2021/09/25 01:51:25;;;;;;;;;22.00;20.25;;;;;16.92;68.73;101386.81;4925998;28;45245;-56
2021/09/25 01:53:50;;;;;;;;;24.50;21.00;;;;;16.94;68.86;101382.22;4926016;28;45295;-57
2021/09/25 01:56:16;;;;;;;;;21.50;19.75;;;;;16.95;68.66;101378.59;4925888;28;45339;-57
2021/09/25 01:58:43;;;;;;;;;25.25;22.75;;;;;16.98;68.64;101381.03;4925964;28;45302;-58
2021/09/25 02:01:10;;;;;;;;;29.75;27.50;;;;;16.99;68.50;101377.41;4925171;28;46240;-57
2021/09/25 02:03:36;;;;;;;;;27.00;23.75;;;;;17.00;68.52;101368.44;4926163;28;45659;-57
2021/09/25 02:06:11;;;;;;;;;31.25;26.25;;;;;17.00;68.43;101372.94;4925780;28;45350;-58
2021/09/25 02:08:38;;;;;;;;;24.75;24.00;;;;;16.97;68.46;101370.47;4925926;28;45469;-57
2021/09/25 02:11:05;;;;;;;;;30.50;24.25;;;;;16.97;68.34;101363.34;4925231;28;45361;-56
2021/09/25 02:13:31;;;;;;;;;29.00;24.75;;;;;16.97;68.33;101357.19;4925623;28;45314;-58
2021/09/25 02:15:57;;;;;;;;;22.25;20.75;;;;;16.96;68.39;101352.81;4925517;28;45416;-56
2021/09/25 02:18:23;;;;;;;;;27.00;24.00;;;;;16.94;68.34;101354.75;4925675;28;45357;-58
2021/09/25 02:20:49;;;;;;;;;22.75;21.00;;;;;16.90;68.50;101354.13;4925277;28;45969;-57
2021/09/25 02:23:14;;;;;;;;;26.00;22.00;;;;;16.91;68.52;101353.19;4925662;28;45236;-58
2021/09/25 02:25:40;;;;;;;;;25.50;21.25;;;;;16.91;68.56;101358.50;4925278;28;45264;-58
2021/09/25 02:28:05;;;;;;;;;24.75;19.25;;;;;16.91;68.52;101358.50;4925747;28;45209;-57
2021/09/25 02:30:32;;;;;;;;;25.50;21.50;;;;;16.90;68.55;101353.28;4925109;28;45365;-56
2021/09/25 02:32:57;;;;;;;;;25.00;21.75;;;;;16.90;68.46;101350.63;4925476;28;45270;-56
2021/09/25 02:35:24;;;;;;;;;19.25;17.50;;;;;16.87;68.52;101354.38;4925246;28;45340;-56
2021/09/25 02:37:50;;;;;;;;;27.75;22.50;;;;;16.85;68.70;101353.66;4925579;28;45293;-57
2021/09/25 02:40:17;;;;;;;;;24.75;22.25;;;;;16.86;68.65;101355.34;4924681;28;46074;-57
2021/09/25 02:42:44;;;;;;;;;23.50;19.50;;;;;16.86;68.77;101354.50;4925461;28;45340;-56
2021/09/25 02:45:11;;;;;;;;;22.00;20.50;;;;;16.86;68.80;101358.00;4924994;28;45230;-56
2021/09/25 02:47:37;;;;;;;;;23.50;21.25;;;;;16.85;68.53;101350.97;4925388;28;45347;-55
2021/09/25 02:50:05;;;;;;;;;24.00;20.75;;;;;16.82;68.63;101358.34;4924887;28;46130;-56
2021/09/25 02:52:31;;;;;;;;;22.25;19.75;;;;;16.81;68.71;101352.16;4925287;28;45310;-56
2021/09/25 02:54:57;;;;;;;;;24.50;19.75;;;;;16.82;68.86;101347.69;4924795;28;45178;-57
2021/09/25 02:57:22;;;;;;;;;19.00;19.00;;;;;16.81;68.80;101346.84;4925234;28;45202;-57
2021/09/25 02:59:48;;;;;;;;;21.50;20.75;;;;;16.80;68.57;101347.81;4924601;28;46053;-57
2021/09/25 03:02:13;;;;;;;;;22.50;20.00;;;;;16.75;68.85;101342.00;4924716;28;45235;-56
2021/09/25 03:04:39;;;;;;;;;20.00;17.25;;;;;16.72;68.88;101344.88;4924878;28;45471;-57
2021/09/25 03:07:04;;;;;;;;;23.75;21.25;;;;;16.70;68.86;101341.50;4924994;28;45320;-56
2021/09/25 03:09:30;;;;;;;;;26.00;22.75;;;;;16.69;69.07;101338.00;4924366;28;46041;-58
2021/09/25 03:11:55;;;;;;;;;18.75;18.75;;;;;16.67;68.94;101331.91;4924986;28;45421;-56
2021/09/25 03:14:21;;;;;;;;;21.00;17.00;;;;;16.64;69.10;101336.59;4924853;28;45512;-58
2021/09/25 03:16:47;;;;;;;;;27.25;24.50;;;;;16.65;69.17;101338.28;4925137;28;45317;-57
2021/09/25 03:19:12;;;;;;;;;23.00;22.00;;;;;16.63;69.27;101337.56;4924380;28;45370;-57
2021/09/25 03:21:38;;;;;;;;;20.25;19.25;;;;;16.60;69.35;101345.78;4924766;28;45327;-57
2021/09/25 03:24:03;;;;;;;;;21.00;18.00;;;;;16.57;69.33;101333.56;4924402;28;45298;-56
2021/09/25 03:26:29;;;;;;;;;22.75;20.00;;;;;16.62;69.34;101344.69;4924719;28;45247;-58
2021/09/25 03:28:55;;;;;;;;;22.25;20.75;;;;;16.63;69.26;101340.22;4924335;28;45469;-57
2021/09/25 03:31:20;;;;;;;;;18.25;17.50;;;;;16.62;69.38;101334.06;4924379;28;45415;-57
2021/09/25 03:33:46;;;;;;;;;21.75;21.75;;;;;16.62;69.12;101334.06;4924062;28;45308;-57
2021/09/25 03:36:11;;;;;;;;;22.25;18.50;;;;;16.60;69.29;101337.81;4924682;28;45218;-56
2021/09/25 03:38:37;;;;;;;;;23.50;18.75;;;;;16.57;69.19;101335.38;4923982;28;45508;-57
2021/09/25 03:41:03;;;;;;;;;23.25;17.50;;;;;16.53;69.16;101341.88;4924162;28;45296;-58
2021/09/25 03:43:28;;;;;;;;;25.75;20.75;;;;;16.47;69.08;101341.38;4924291;28;45305;-58
2021/09/25 03:45:54;;;;;;;;;21.50;21.00;;;;;16.46;69.28;101339.69;4924535;28;45345;-57
2021/09/25 03:48:19;;;;;;;;;23.00;20.50;;;;;16.46;69.22;101338.84;4922921;28;45354;-56
2021/09/25 03:50:45;;;;;;;;;22.00;20.00;;;;;16.46;69.31;101334.38;4924244;28;45421;-59
2021/09/25 03:53:10;;;;;;;;;22.25;18.50;;;;;16.43;69.11;101329.28;4923947;28;45216;-58
2021/09/25 03:55:36;;;;;;;;;24.00;19.50;;;;;16.41;69.23;101333.00;4924132;28;45242;-57
2021/09/25 03:58:01;;;;;;;;;21.50;19.00;;;;;16.37;69.33;101332.38;4923890;28;46253;-57
2021/09/25 04:00:27;;;;;;;;;22.25;20.00;;;;;16.36;69.04;101332.50;4923792;28;45400;-57
2021/09/25 04:02:53;;;;;;;;;19.25;18.25;;;;;16.36;69.09;101332.50;4923706;28;45529;-57
2021/09/25 04:05:20;;;;;;;;;25.25;21.25;;;;;16.34;68.93;101334.41;4924243;28;45550;-58
2021/09/25 04:07:47;;;;;;;;;19.25;17.75;;;;;16.33;69.16;101330.91;4923790;28;45337;-57
2021/09/25 04:10:13;;;;;;;;;21.00;19.25;;;;;16.32;69.14;101331.03;4923686;28;45262;-57
2021/09/25 04:12:39;;;;;;;;;22.00;19.75;;;;;16.30;69.26;101330.31;4923961;28;45342;-56
2021/09/25 04:15:06;;;;;;;;;23.75;21.25;;;;;16.30;69.30;101328.47;4924011;28;45315;-57
2021/09/25 04:17:31;;;;;;;;;26.00;22.00;;;;;16.28;69.26;101322.44;4923701;28;45461;-58
2021/09/25 04:19:57;;;;;;;;;19.00;17.50;;;;;16.26;69.14;101319.03;4923648;28;45407;-56
2021/09/25 04:22:22;;;;;;;;;23.25;18.50;;;;;16.26;69.32;101320.84;4923871;28;45348;-56
2021/09/25 04:24:48;;;;;;;;;25.25;22.75;;;;;16.26;69.38;101328.81;4923822;28;46134;-57
2021/09/25 04:27:14;;;;;;;;;21.25;21.00;;;;;16.26;69.28;101331.47;4923716;28;46188;-57
2021/09/25 04:29:39;;;;;;;;;22.00;19.25;;;;;16.27;69.17;101325.19;4923481;28;45264;-57
2021/09/25 04:32:05;;;;;;;;;20.75;19.00;;;;;16.25;69.44;101325.31;4923703;28;45328;-57
2021/09/25 04:34:32;;;;;;;;;23.25;20.00;;;;;16.25;69.23;101321.81;4923747;28;45264;-56
2021/09/25 04:36:58;;;;;;;;;23.75;19.00;;;;;16.26;69.17;101311.06;4923379;28;46188;-56
2021/09/25 04:39:24;;;;;;;;;16.25;16.25;;;;;16.25;69.05;101316.47;4923242;28;45411;-56
2021/09/25 04:41:51;;;;;;;;;21.75;21.50;;;;;16.21;69.25;101313.22;4923528;28;45292;-56
2021/09/25 04:44:16;;;;;;;;;21.75;20.50;;;;;16.19;69.15;101320.44;4922629;28;45471;-56
2021/09/25 04:46:43;;;;;;;;;19.50;18.00;;;;;16.19;69.37;101315.13;4923131;28;45439;-56
2021/09/25 04:49:09;;;;;;;;;19.50;18.00;;;;;16.19;69.13;101304.50;4923274;28;45358;-56
2021/09/25 04:51:34;;;;;;;;;21.00;20.75;;;;;16.17;69.21;101301.94;4923533;28;45371;-56
2021/09/25 04:54:00;;;;;;;;;20.25;17.00;;;;;16.18;69.25;101310.75;4923346;28;45380;-56
2021/09/25 04:56:25;;;;;;;;;21.50;18.25;;;;;16.15;69.41;101313.66;4923158;28;46147;-55
2021/09/25 04:58:51;;;;;;;;;25.25;21.25;;;;;16.15;69.37;101318.97;4923189;28;45479;-56
2021/09/25 05:01:17;;;;;;;;;20.25;20.25;;;;;16.14;69.71;101319.94;4923109;28;45504;-58
2021/09/25 05:03:42;;;;;;;;;25.75;19.25;;;;;16.11;69.47;101318.34;4923372;28;45242;-56
2021/09/25 05:06:08;;;;;;;;;21.50;19.75;;;;;16.07;69.44;101306.25;4923134;28;45702;-57
2021/09/25 05:08:34;;;;;;;;;20.75;18.50;;;;;16.06;69.57;101309.88;4923111;28;45218;-56
2021/09/25 05:10:59;;;;;;;;;22.25;21.00;;;;;16.06;69.42;101311.69;4923091;28;45316;-55
2021/09/25 05:13:26;;;;;;;;;25.75;21.00;;;;;16.03;69.41;101315.38;4923102;28;45585;-56
2021/09/25 05:15:51;;;;;;;;;25.00;19.75;;;;;16.01;69.73;101309.34;4922946;28;45460;-56
2021/09/25 05:18:17;;;;;;;;;17.75;17.00;;;;;15.97;69.82;101317.66;4923015;28;45386;-56
2021/09/25 05:20:43;;;;;;;;;26.50;19.00;;;;;15.94;69.65;101312.56;4923145;28;45282;-56
2021/09/25 05:23:10;;;;;;;;;21.25;20.50;;;;;15.94;69.72;101315.22;4923184;28;45280;-56
2021/09/25 05:25:35;;;;;;;;;22.00;19.00;;;;;15.94;69.61;101304.59;4922753;28;45974;-57
2021/09/25 05:28:01;;;;;;;;;21.50;18.50;;;;;15.97;69.50;101318.53;4923026;28;45325;-57
2021/09/25 05:30:26;;;;;;;;;21.50;20.25;;;;;15.96;69.87;101310.63;4922869;28;45321;-60
2021/09/25 05:32:52;;;;;;;;;23.50;20.50;;;;;15.93;69.66;101311.72;4923006;28;45527;-57
2021/09/25 05:35:17;;;;;;;;;22.75;20.00;;;;;15.94;69.63;101310.75;4922824;28;45974;-58
2021/09/25 05:37:43;;;;;;;;;20.75;20.25;;;;;15.94;69.58;101299.28;4921648;28;45340;-58
2021/09/25 05:40:09;;;;;;;;;24.75;21.75;;;;;15.95;69.65;101298.31;4922559;28;45391;-55
2021/09/25 05:42:34;;;;;;;;;20.25;19.50;;;;;15.96;69.74;101306.19;4923188;28;45226;-57
2021/09/25 05:45:00;;;;;;;;;21.50;19.75;;;;;15.97;69.38;101309.69;4922503;28;45862;-58
2021/09/25 05:47:25;;;;;;;;;27.00;22.75;;;;;15.96;69.50;101306.19;4923012;28;45393;-58
2021/09/25 05:49:51;;;;;;;;;22.50;20.50;;;;;15.95;69.53;101315.09;4922709;28;45242;-57
2021/09/25 05:52:19;;;;;;;;;19.25;18.75;;;;;15.96;69.50;101313.28;4922784;28;45360;-57
2021/09/25 05:54:45;;;;;;;;;26.00;21.25;;;;;15.98;69.46;101314.06;4922333;28;46137;-58
2021/09/25 05:57:10;;;;;;;;;23.50;21.75;;;;;15.97;69.54;101315.88;4925975;28;45383;-58
2021/09/25 05:59:37;;;;;;;;;21.00;18.00;;;;;15.98;69.42;101308.75;4925598;28;45442;-59
2021/09/25 06:02:03;;;;;;;;;24.00;21.50;;;;;15.94;69.33;101300.13;4925593;28;45206;-57
2021/09/25 06:04:30;;;;;;;;;23.75;20.00;;;;;15.97;69.28;101315.00;4925649;28;45991;-58
2021/09/25 06:06:56;;;;;;;;;19.00;18.00;;;;;15.98;69.13;101314.06;4925785;28;45197;-58
2021/09/25 06:09:21;;;;;;;;;20.75;18.75;;;;;15.99;69.13;101313.09;4925560;28;45458;-57
2021/09/25 06:11:51;;;;;;;;;23.75;23.75;;;;;15.98;69.09;101320.22;4925865;28;45435;-57
2021/09/25 06:14:17;;;;;;;;;26.75;22.75;;;;;15.97;69.04;101313.22;4925440;28;45332;-57
2021/09/25 06:16:42;;;;;;;;;22.00;21.00;;;;;15.96;68.81;101321.25;4925495;28;45218;-57
2021/09/25 06:19:08;;;;;;;;;20.25;20.00;;;;;15.97;68.98;101317.66;4925613;28;45464;-57
2021/09/25 06:21:33;;;;;;;;;22.50;18.75;;;;;15.99;69.05;101318.41;4925759;28;45447;-57
2021/09/25 06:23:59;;;;;;;;;24.25;21.50;;;;;16.00;69.11;101325.41;4925189;28;45757;-57
2021/09/25 06:26:24;;;;;;;;;25.75;22.75;;;;;16.03;69.06;101327.84;4925566;28;45232;-56
2021/09/25 06:28:50;;;;;;;;;27.00;24.00;;;;;16.07;69.01;101327.50;4925460;28;45347;-57
2021/09/25 06:31:18;;;;;;;;;24.75;23.75;;;;;16.10;68.87;101321.97;4925525;28;45246;-56
2021/09/25 06:33:45;;;;;;;;;22.25;21.00;;;;;16.13;68.65;101331.53;4925212;28;45448;-55
2021/09/25 06:36:11;;;;;;;;;25.75;25.00;;;;;16.16;68.49;101328.66;4925313;28;45321;-57
2021/09/25 06:38:37;;;;;;;;;29.25;22.25;;;;;16.23;68.48;101329.06;4925109;28;45293;-57
2021/09/25 06:41:03;;;;;;;;;26.25;22.75;;;;;16.26;68.18;101323.50;4925318;28;45164;-57
2021/09/25 06:43:29;;;;;;;;;20.00;19.25;;;;;16.30;68.31;101328.47;4925098;28;45297;-56
2021/09/25 06:45:54;;;;;;;;;26.75;22.00;;;;;16.36;68.00;101329.84;4925033;28;45165;-56
2021/09/25 06:48:20;;;;;;;;;27.25;21.50;;;;;16.41;67.76;101325.03;4925136;28;45242;-57
2021/09/25 06:50:45;;;;;;;;;25.50;23.75;;;;;16.43;67.71;101317.78;4925296;28;45226;-56
2021/09/25 06:53:11;;;;;;;;;25.50;23.00;;;;;16.48;67.62;101318.28;4924818;28;45463;-57
2021/09/25 06:55:37;;;;;;;;;19.25;19.25;;;;;16.52;67.51;101308.28;4924683;28;45375;-56
2021/09/25 06:58:03;;;;;;;;;26.75;23.00;;;;;16.54;67.40;101303.69;4924955;28;45341;-56
2021/09/25 07:00:28;;;;;;;;;30.50;22.50;;;;;16.56;67.54;101312.38;4924645;28;45341;-57
2021/09/25 07:02:54;;;;;;;;;31.75;27.00;;;;;16.56;67.43;101310.56;4924293;28;45464;-56
2021/09/25 07:05:19;;;;;;;;;27.75;23.25;;;;;16.57;67.17;101309.59;4924931;28;45294;-56
2021/09/25 07:07:45;;;;;;;;;27.75;23.75;;;;;16.57;67.29;101306.94;4923698;28;45306;-56
2021/09/25 07:10:11;;;;;;;;;23.25;22.75;;;;;16.56;67.18;101307.91;4924789;28;45258;-57
2021/09/25 07:12:37;;;;;;;;;22.00;21.00;;;;;16.56;67.33;101305.25;4924443;28;45253;-58
2021/09/25 07:15:03;;;;;;;;;23.75;22.00;;;;;16.56;67.21;101305.25;4924557;28;45386;-57
2021/09/25 07:17:29;;;;;;;;;23.75;22.75;;;;;16.55;67.25;101294.75;4924544;28;45571;-57
2021/09/25 07:19:54;;;;;;;;;24.50;21.00;;;;;16.52;67.23;101289.66;4924425;28;45233;-57
2021/09/25 07:22:20;;;;;;;;;27.75;25.25;;;;;16.51;67.54;101288.81;4924136;28;45345;-57
2021/09/25 07:24:45;;;;;;;;;29.50;25.50;;;;;16.49;67.41;101301.38;4924150;28;45262;-56
2021/09/25 07:27:11;;;;;;;;;25.25;23.75;;;;;16.51;67.59;101310.09;4924378;28;45310;-56
2021/09/25 07:29:37;;;;;;;;;26.50;23.00;;;;;16.55;67.52;101302.72;4923011;28;45336;-56
2021/09/25 07:32:02;;;;;;;;;28.50;25.50;;;;;16.56;67.62;101297.28;4924276;28;45363;-57
2021/09/25 07:34:28;;;;;;;;;32.25;27.25;;;;;16.62;67.62;101301.28;4924406;28;45341;-56
2021/09/25 07:36:54;;;;;;;;;30.50;27.75;;;;;16.66;68.01;101303.59;4924639;28;45276;-56
2021/09/25 07:39:20;;;;;;;;;25.75;23.75;;;;;16.70;67.42;101296.28;4924142;28;45555;-56
2021/09/25 07:41:45;;;;;;;;;31.00;27.75;;;;;16.73;67.62;101298.69;4924360;28;45953;-56
2021/09/25 07:44:11;;;;;;;;;27.25;26.50;;;;;16.75;67.78;101294.13;4924268;28;45363;-58
2021/09/25 07:46:37;;;;;;;;;32.00;29.00;;;;;16.79;67.69;101290.25;4924395;28;46566;-56
2021/09/25 07:49:03;;;;;;;;;27.75;24.25;;;;;16.84;67.78;101297.88;4924278;28;45245;-55
2021/09/25 07:51:28;;;;;;;;;28.00;25.00;;;;;16.87;67.54;101297.66;4923889;28;45265;-56
2021/09/25 07:53:55;;;;;;;;;33.50;26.75;;;;;16.92;67.89;101293.69;4923756;28;45284;-56
2021/09/25 07:56:21;;;;;;;;;28.50;23.75;;;;;16.93;67.58;101292.69;4924183;28;45253;-56
2021/09/25 07:58:47;;;;;;;;;30.25;28.50;;;;;16.96;67.60;101279.16;4923984;28;45513;-57
2021/09/25 08:01:13;;;;;;;;;30.50;26.50;;;;;17.00;67.70;101283.28;4923468;28;45341;-56
2021/09/25 08:03:39;;;;;;;;;33.25;29.75;;;;;17.05;67.69;101288.22;4923876;28;45256;-56
2021/09/25 08:06:04;;;;;;;;;35.50;30.00;;;;;17.08;67.43;101290.66;4923879;28;45288;-56
2021/09/25 08:08:30;;;;;;;;;32.25;28.75;;;;;17.12;67.45;101289.44;4923800;28;45540;-56
2021/09/25 08:10:55;;;;;;;;;29.25;28.00;;;;;17.15;67.62;101286.56;4923704;28;46191;-56
2021/09/25 08:13:21;;;;;;;;;33.25;31.25;;;;;17.20;67.41;101289.69;4923614;28;45301;-54
2021/09/25 08:15:49;;;;;;;;;36.00;31.25;;;;;17.26;67.05;101286.56;4923674;28;45250;-56
2021/09/25 08:18:16;;;;;;;;;27.75;26.75;;;;;17.33;67.39;101288.75;4923780;28;45162;-56
2021/09/25 08:20:41;;;;;;;;;29.00;29.00;;;;;17.42;67.17;101283.53;4923362;28;46208;-56
2021/09/25 08:23:07;;;;;;;;;35.00;30.25;;;;;17.51;67.05;101282.78;4923704;28;45336;-56
2021/09/25 08:25:32;;;;;;;;;29.00;27.50;;;;;17.61;67.00;101277.56;4923470;28;45325;-56
2021/09/25 08:27:58;;;;;;;;;28.25;25.50;;;;;17.65;66.84;101279.03;4923833;28;45426;-55
2021/09/25 08:30:25;;;;;;;;;29.75;26.75;;;;;17.67;66.64;101274.41;4923256;28;45346;-55
2021/09/25 08:32:53;;;;;;;;;36.00;29.50;;;;;17.72;66.96;101271.44;4923527;28;45336;-55
2021/09/25 08:35:21;;;;;;;;;36.50;31.25;;;;;17.76;66.50;101271.03;4923622;28;45281;-55
2021/09/25 08:37:48;;;;;;;;;31.50;29.25;;;;;17.79;66.38;101281.47;4923582;28;45437;-56
2021/09/25 08:40:18;;;;;;;;;38.50;31.00;;;;;17.87;66.76;101285.34;4922817;28;45360;-54
2021/09/25 08:42:44;;;;;;;;;30.25;27.00;;;;;17.97;66.77;101280.94;4923404;28;45503;-56
2021/09/25 08:45:10;;;;;;;;;30.25;25.50;;;;;18.03;66.22;101286.63;4923344;28;45468;-56
2021/09/25 08:47:35;;;;;;;;;29.00;27.75;;;;;18.12;66.19;101279.69;4923605;28;45503;-56
2021/09/25 08:50:02;;;;;;;;;27.50;26.50;;;;;18.20;66.15;101271.06;4923010;28;46424;-55
2021/09/25 08:52:29;;;;;;;;;31.50;29.00;;;;;18.29;65.77;101279.13;4923373;28;45387;-56
2021/09/25 08:54:55;;;;;;;;;30.25;26.25;;;;;18.37;65.51;101273.16;4923172;28;45363;-56
2021/09/25 08:57:20;;;;;;;;;28.00;28.00;;;;;18.47;65.82;101266.06;4923463;28;45352;-57
2021/09/25 08:59:46;;;;;;;;;31.75;29.00;;;;;18.57;65.60;101261.69;4922754;28;45463;-56
2021/09/25 09:02:18;;;;;;;;;29.50;26.50;;;;;18.66;65.63;101260.91;4922787;28;45590;-56
2021/09/25 09:04:46;;;;;;;;;32.75;28.75;;;;;18.76;64.97;101255.63;4923190;28;45319;-55
2021/09/25 09:07:14;;;;;;;;;39.75;31.25;;;;;18.85;65.05;101249.50;4923264;28;45473;-57
2021/09/25 09:09:44;;;;;;;;;30.25;25.75;;;;;18.93;64.83;101254.19;4922704;28;45245;-58
2021/09/25 09:12:10;;;;;;;;;30.25;28.25;;;;;19.01;64.97;101259.72;4923056;28;45337;-59
2021/09/25 09:14:46;;;;;;;;;29.25;26.50;;;;;19.02;64.22;101256.06;4922910;28;45265;-58
2021/09/25 09:17:21;;;;;;;;;33.75;30.75;;;;;19.04;64.84;101259.47;4923150;28;45298;-57
2021/09/25 09:19:48;;;;;;;;;28.75;28.75;;;;;19.08;64.17;101263.53;4922642;28;45454;-56
2021/09/25 09:22:17;;;;;;;;;36.25;31.00;;;;;19.18;64.30;101264.44;4923100;28;45482;-57
2021/09/25 09:24:48;;;;;;;;;31.75;29.00;;;;;19.25;63.89;101262.06;4922845;28;45337;-57
2021/09/25 09:27:21;;;;;;;;;31.25;28.75;;;;;19.24;62.95;101269.25;4922891;28;45626;-57
2021/09/25 09:29:46;;;;;;;;;31.25;28.75;;;;;19.30;63.05;101267.03;4922773;28;46259;-57
2021/09/25 09:32:12;;;;;;;;;27.50;25.25;;;;;19.41;62.67;101273.09;4926149;28;45357;-55
2021/09/25 09:34:41;;;;;;;;;29.75;28.75;;;;;19.46;62.46;101267.38;4926370;28;45161;-56
2021/09/25 09:37:13;;;;;;;;;30.25;26.75;;;;;19.46;62.53;101273.56;4926194;28;45641;-58
2021/09/25 09:39:38;;;;;;;;;30.25;29.50;;;;;19.44;62.51;101262.16;4925818;28;46107;-57
2021/09/25 09:42:04;;;;;;;;;31.25;28.00;;;;;19.46;63.03;101264.69;4925872;28;45238;-58
2021/09/25 09:44:30;;;;;;;;;29.00;27.25;;;;;19.46;62.83;101265.53;4926017;28;45275;-57
2021/09/25 09:46:58;;;;;;;;;28.25;24.25;;;;;19.46;62.83;101259.34;4925854;28;45242;-58
2021/09/25 09:49:27;;;;;;;;;31.50;27.75;;;;;19.44;62.71;101258.66;4925839;28;45427;-56
2021/09/25 09:52:12;;;;;;;;;35.50;30.75;;;;;19.44;62.51;101258.66;4925738;28;45471;-57
2021/09/25 09:54:43;;;;;;;;;25.75;25.00;;;;;19.47;62.65;101247.69;4925933;28;45452;-56
2021/09/25 09:57:18;;;;;;;;;27.75;24.00;;;;;19.51;61.97;101235.72;4926072;28;45528;-56
2021/09/25 09:59:45;;;;;;;;;28.50;28.00;;;;;19.59;62.14;101235.06;4925453;28;45468;-57
2021/09/25 10:02:11;;;;;;;;;27.75;26.50;;;;;19.69;62.20;101242.16;4925502;28;45312;-56
2021/09/25 10:04:37;;;;;;;;;29.00;28.75;;;;;19.83;61.90;101240.91;4925673;28;45324;-56
2021/09/25 10:07:03;;;;;;;;;29.50;26.75;;;;;19.92;61.26;101239.22;4925999;28;45245;-57
2021/09/25 10:09:32;;;;;;;;;33.25;29.50;;;;;20.04;61.07;101235.41;4925160;28;45939;-57
2021/09/25 10:12:00;;;;;;;;;34.50;30.50;;;;;20.15;61.14;101237.13;4925672;28;45442;-55
2021/09/25 10:14:29;;;;;;;;;33.25;29.25;;;;;20.27;60.99;101244.03;4925479;28;45429;-56
2021/09/25 10:16:56;;;;;;;;;31.50;28.00;;;;;20.32;60.85;101245.28;4925741;28;45542;-57
2021/09/25 10:19:30;;;;;;;;;32.00;29.50;;;;;20.39;60.26;101247.41;4925334;28;46300;-57
2021/09/25 10:22:01;;;;;;;;;35.25;28.25;;;;;20.47;60.46;101237.72;4925472;28;45221;-56
2021/09/25 10:24:29;;;;;;;;;33.00;25.75;;;;;20.55;60.41;101231.63;4925302;28;45344;-57
2021/09/25 10:26:55;;;;;;;;;27.00;26.50;;;;;20.61;60.02;101239.06;4925627;28;45490;-56
2021/09/25 10:29:24;;;;;;;;;30.00;26.25;;;;;20.66;60.10;101236.81;4925077;28;45415;-57
2021/09/25 10:32:18;;;;;;;;;30.75;28.25;;;;;20.78;59.68;101242.88;4925360;28;45474;-57
2021/09/25 10:35:11;;;;;;;;;28.00;25.50;;;;;20.90;59.51;101228.31;4925468;28;45313;-57
2021/09/25 10:37:38;;;;;;;;;30.00;27.25;;;;;20.97;59.19;101237.44;4925590;28;45522;-56
2021/09/25 10:40:10;;;;;;;;;26.25;25.00;;;;;21.02;58.88;101237.88;4924725;28;45388;-55
2021/09/25 10:42:46;;;;;;;;;21.75;17.00;;;;;21.06;58.83;101233.88;4924032;28;45388;-56
2021/09/25 10:45:25;;;;;;;;;27.00;24.50;;;;;21.11;59.25;101242.34;4908009;28;45507;-56
2021/09/25 10:48:25;;;;;;;;;30.25;26.75;;;;;21.16;58.68;101237.34;4925179;28;45486;-56
2021/09/25 10:50:56;;;;;;;;;30.50;25.75;;;;;21.22;58.76;101229.72;4925012;28;45401;-56
2021/09/25 10:53:26;;;;;;;;;24.25;23.00;;;;;21.27;58.88;101231.03;4925056;28;45201;-56
2021/09/25 10:55:55;;;;;;;;;26.25;23.25;;;;;21.32;58.50;101222.50;4925184;28;45500;-55
2021/09/25 10:58:23;;;;;;;;;23.50;23.50;;;;;21.34;58.32;101231.28;4924894;28;45442;-56
2021/09/25 11:01:09;;;;;;;;;26.50;24.50;;;;;21.39;57.86;101221.78;4924432;28;45398;-56
2021/09/25 11:03:47;;;;;;;;;28.00;25.50;;;;;21.41;58.40;101213.59;4913350;28;45463;-56
2021/09/25 11:06:12;;;;;;;;;25.00;23.25;;;;;21.49;57.92;101210.16;4924813;28;45256;-56
2021/09/25 11:08:49;;;;;;;;;29.25;25.50;;;;;21.58;58.29;101203.91;4924298;28;45620;-56